createdAt,value
2022-08-15T00:00:28.007Z,67.93
2022-08-15T00:01:28.045Z,68.04
2022-08-15T00:02:34.258Z,67.90
2022-08-15T00:04:00.941Z,68.00
2022-08-15T00:04:33.352Z,67.83
2022-08-15T00:05:28.954Z,68.13
2022-08-15T00:06:38.926Z,68.33
2022-08-15T00:07:45.722Z,68.13
2022-08-15T00:08:51.016Z,68.23
2022-08-15T00:09:54.818Z,68.23
2022-08-15T00:10:59.750Z,68.00
2022-08-15T00:11:28.892Z,67.93
2022-08-15T00:12:36.403Z,67.40
2022-08-15T00:13:30.608Z,67.50
2022-08-15T00:14:31.226Z,67.60
2022-08-15T00:15:34.587Z,67.50
2022-08-15T00:16:28.835Z,67.60
2022-08-15T00:17:46.113Z,67.44
2022-08-15T00:18:28.815Z,67.50
2022-08-15T00:19:27.816Z,68.10
2022-08-15T00:20:33.355Z,67.74
2022-08-15T00:21:28.780Z,67.60
2022-08-15T00:22:34.346Z,67.83
2022-08-15T00:23:30.663Z,68.13
2022-08-15T00:24:29.638Z,67.83
2022-08-15T00:25:27.957Z,68.13
2022-08-15T00:26:54.420Z,67.54
2022-08-15T00:27:28.715Z,68.66
2022-08-15T00:28:35.843Z,68.99
2022-08-15T00:29:38.024Z,70.19
2022-08-15T00:30:28.689Z,69.79
2022-08-15T00:31:41.883Z,69.43
2022-08-15T00:32:49.740Z,70.22
2022-08-15T00:33:29.888Z,69.73
2022-08-15T00:34:39.729Z,70.42
2022-08-15T00:35:29.280Z,70.52
2022-08-15T00:36:53.118Z,70.12
2022-08-15T00:37:28.608Z,70.12
2022-08-15T00:38:28.315Z,69.89
2022-08-15T00:39:32.805Z,69.69
2022-08-15T00:40:32.277Z,69.29
2022-08-15T00:41:27.566Z,69.29
2022-08-15T00:42:30.286Z,68.99
2022-08-15T00:43:30.779Z,69.16
2022-08-15T00:44:53.215Z,68.56
2022-08-15T00:45:34.235Z,68.66
2022-08-15T00:46:28.513Z,68.56
2022-08-15T00:47:31.369Z,68.66
2022-08-15T00:48:27.504Z,68.76
2022-08-15T00:49:27.481Z,68.76
2022-08-15T00:50:34.120Z,68.46
2022-08-15T00:51:30.464Z,69.09
2022-08-15T00:52:30.585Z,69.09
2022-08-15T00:53:30.452Z,69.43
2022-08-15T00:54:56.582Z,69.92
2022-08-15T00:55:28.417Z,70.72
2022-08-15T00:56:28.750Z,70.52
2022-08-15T00:57:57.076Z,70.45
2022-08-15T00:58:34.803Z,70.95
2022-08-15T00:59:28.374Z,71.22
2022-08-15T01:00:34.008Z,70.52
2022-08-15T01:01:28.386Z,70.52
2022-08-15T01:02:35.531Z,70.56
2022-08-15T01:03:28.343Z,70.82
2022-08-15T01:04:33.915Z,70.82
2022-08-15T01:05:28.311Z,70.92
2022-08-15T01:06:28.109Z,70.95
2022-08-15T01:07:27.292Z,71.22
2022-08-15T01:08:30.387Z,71.22
2022-08-15T01:09:28.269Z,71.22
2022-08-15T01:10:27.262Z,71.35
2022-08-15T01:11:33.370Z,71.65
2022-08-15T01:12:28.238Z,71.65
2022-08-15T01:14:04.212Z,71.65
2022-08-15T01:14:55.807Z,71.85
2022-08-15T01:15:42.373Z,71.85
2022-08-15T01:16:32.802Z,71.85
2022-08-15T01:17:28.249Z,71.55
2022-08-15T01:18:34.899Z,71.55
2022-08-15T01:19:29.628Z,71.62
2022-08-15T01:20:27.161Z,71.32
2022-08-15T01:21:28.934Z,70.92
2022-08-15T01:22:27.146Z,70.82
2022-08-15T01:23:52.698Z,70.29
2022-08-15T01:24:28.113Z,70.32
2022-08-15T01:26:39.055Z,70.42
2022-08-15T01:26:42.098Z,69.99
2022-08-15T01:27:28.097Z,70.39
2022-08-15T01:28:30.994Z,70.72
2022-08-15T01:29:27.061Z,70.32
2022-08-15T01:31:01.753Z,70.52
2022-08-15T01:31:28.037Z,70.39
2022-08-15T01:32:27.046Z,70.32
2022-08-15T01:33:27.017Z,70.42
2022-08-15T01:34:27.008Z,70.49
2022-08-15T01:35:26.998Z,70.39
2022-08-15T01:36:32.672Z,69.79
2022-08-15T01:37:27.985Z,70.42
2022-08-15T01:38:38.481Z,70.49
2022-08-15T01:39:28.023Z,70.12
2022-08-15T01:40:51.805Z,71.12
2022-08-15T01:41:36.032Z,70.82
2022-08-15T01:42:27.922Z,70.72
2022-08-15T01:43:28.080Z,70.72
2022-08-15T01:44:33.621Z,70.92
2022-08-15T01:45:27.893Z,71.51
2022-08-15T01:46:26.882Z,71.72
2022-08-15T01:47:27.213Z,72.05
2022-08-15T01:48:27.063Z,72.58
2022-08-15T01:49:26.849Z,73.11
2022-08-15T01:50:31.119Z,73.61
2022-08-15T01:51:26.828Z,73.82
2022-08-15T01:52:59.186Z,73.48
2022-08-15T01:53:29.820Z,73.88
2022-08-15T01:55:03.062Z,74.11
2022-08-15T01:55:32.365Z,74.32
2022-08-15T01:56:35.698Z,74.32
2022-08-15T01:57:27.782Z,74.32
2022-08-15T01:58:26.755Z,74.51
2022-08-15T01:59:26.746Z,74.51
2022-08-15T02:00:27.739Z,74.81
2022-08-15T02:01:35.210Z,74.51
2022-08-15T02:02:39.844Z,74.32
2022-08-15T02:03:27.702Z,74.08
2022-08-15T02:04:26.693Z,73.98
2022-08-15T02:05:26.685Z,74.62
2022-08-15T02:06:35.393Z,74.71
2022-08-15T02:07:27.677Z,74.81
2022-08-15T02:08:35.034Z,75.11
2022-08-15T02:09:38.821Z,75.31
2022-08-15T02:10:28.030Z,75.65
2022-08-15T02:11:26.620Z,75.95
2022-08-15T02:13:02.777Z,76.38
2022-08-15T02:13:27.601Z,76.88
2022-08-15T02:14:38.950Z,76.68
2022-08-15T02:15:27.578Z,76.54
2022-08-15T02:16:26.571Z,76.38
2022-08-15T02:17:31.763Z,76.78
2022-08-15T02:18:27.557Z,76.58
2022-08-15T02:19:26.534Z,76.88
2022-08-15T02:20:27.307Z,76.68
2022-08-15T02:21:36.936Z,76.45
2022-08-15T02:22:28.196Z,75.95
2022-08-15T02:23:26.493Z,75.41
2022-08-15T02:24:27.041Z,74.91
2022-08-15T02:25:26.470Z,75.21
2022-08-15T02:26:26.547Z,75.25
2022-08-15T02:27:26.461Z,75.31
2022-08-15T02:28:36.225Z,75.31
2022-08-15T02:29:27.429Z,74.91
2022-08-15T02:30:31.523Z,75.31
2022-08-15T02:31:27.408Z,75.74
2022-08-15T02:32:31.090Z,75.55
2022-08-15T02:33:26.388Z,75.89
2022-08-15T02:34:44.892Z,76.08
2022-08-15T02:35:28.869Z,76.34
2022-08-15T02:36:31.243Z,76.28
2022-08-15T02:37:27.357Z,75.95
2022-08-15T02:38:26.336Z,75.55
2022-08-15T02:39:27.350Z,75.85
2022-08-15T02:40:44.860Z,75.65
2022-08-15T02:41:27.302Z,76.15
2022-08-15T02:42:27.306Z,76.25
2022-08-15T02:43:26.282Z,76.15
2022-08-15T02:44:26.274Z,76.38
2022-08-15T02:45:26.261Z,76.58
2022-08-15T02:46:28.677Z,76.84
2022-08-15T02:47:26.249Z,76.88
2022-08-15T02:48:26.937Z,76.84
2022-08-15T02:49:26.221Z,76.75
2022-08-15T02:50:27.209Z,76.04
2022-08-15T02:51:26.199Z,75.65
2022-08-15T02:52:26.203Z,75.15
2022-08-15T02:53:26.835Z,74.91
2022-08-15T02:54:36.622Z,75.11
2022-08-15T02:55:30.839Z,75.01
2022-08-15T02:56:30.837Z,74.81
2022-08-15T02:57:27.145Z,74.41
2022-08-15T02:58:30.063Z,74.62
2022-08-15T02:59:27.117Z,74.32
2022-08-15T03:00:27.613Z,74.51
2022-08-15T03:01:26.150Z,75.15
2022-08-15T03:02:29.181Z,75.21
2022-08-15T03:03:26.075Z,75.21
2022-08-15T03:04:27.708Z,75.41
2022-08-15T03:05:26.054Z,75.55
2022-08-15T03:06:31.383Z,75.21
2022-08-15T03:07:27.048Z,75.55
2022-08-15T03:08:26.023Z,75.55
2022-08-15T03:09:26.014Z,75.74
2022-08-15T03:10:29.841Z,75.35
2022-08-15T03:11:25.999Z,75.65
2022-08-15T03:12:30.712Z,76.25
2022-08-15T03:13:26.971Z,76.45
2022-08-15T03:14:34.179Z,75.85
2022-08-15T03:15:26.946Z,76.34
2022-08-15T03:16:25.949Z,76.15
2022-08-15T03:17:26.927Z,76.34
2022-08-15T03:18:31.599Z,76.34
2022-08-15T03:19:26.908Z,76.54
2022-08-15T03:20:31.044Z,76.58
2022-08-15T03:21:26.907Z,76.34
2022-08-15T03:22:45.690Z,76.34
2022-08-15T03:23:41.055Z,76.34
2022-08-15T03:24:26.857Z,76.98
2022-08-15T03:25:29.592Z,76.68
2022-08-15T03:26:46.248Z,76.48
2022-08-15T03:27:26.820Z,76.48
2022-08-15T03:28:28.517Z,76.34
2022-08-15T03:29:34.105Z,76.58
2022-08-15T03:30:26.791Z,76.48
2022-08-15T03:31:25.799Z,76.58
2022-08-15T03:32:32.717Z,76.58
2022-08-15T03:33:54.893Z,76.54
2022-08-15T03:34:29.081Z,76.54
2022-08-15T03:35:27.403Z,76.68
2022-08-15T03:36:25.738Z,76.98
2022-08-15T03:37:25.717Z,77.08
2022-08-15T03:38:52.127Z,77.08
2022-08-15T03:39:26.758Z,77.18
2022-08-15T03:40:28.832Z,76.45
2022-08-15T03:41:25.684Z,76.78
2022-08-15T03:42:25.664Z,76.65
2022-08-15T03:43:26.680Z,76.78
2022-08-15T03:44:28.292Z,76.68
2022-08-15T03:45:26.634Z,76.78
2022-08-15T03:46:26.632Z,76.58
2022-08-15T03:47:25.607Z,76.45
2022-08-15T03:48:25.599Z,76.48
2022-08-15T03:50:23.448Z,76.58
2022-08-15T03:50:35.375Z,76.58
2022-08-15T03:51:26.578Z,76.58
2022-08-15T03:52:32.819Z,76.48
2022-08-15T03:53:28.613Z,76.68
2022-08-15T03:54:26.016Z,77.08
2022-08-15T03:55:25.524Z,77.02
2022-08-15T03:56:25.525Z,77.51
2022-08-15T03:57:25.506Z,77.62
2022-08-15T03:58:35.830Z,78.02
2022-08-15T03:59:26.481Z,78.02
2022-08-15T04:00:26.193Z,78.42
2022-08-15T04:01:29.623Z,78.55
2022-08-15T04:02:30.381Z,78.61
2022-08-15T04:03:25.439Z,78.52
2022-08-15T04:04:25.430Z,78.61
2022-08-15T04:05:25.418Z,78.42
2022-08-15T04:06:27.817Z,78.42
2022-08-15T04:07:25.440Z,78.31
2022-08-15T04:08:44.092Z,78.31
2022-08-15T04:09:29.976Z,78.31
2022-08-15T04:10:39.289Z,78.31
2022-08-15T04:11:35.694Z,78.52
2022-08-15T04:12:26.631Z,78.61
2022-08-15T04:13:25.334Z,78.52
2022-08-15T04:14:32.258Z,78.52
2022-08-15T04:15:26.310Z,78.31
2022-08-15T04:17:03.492Z,78.52
2022-08-15T04:17:56.901Z,78.42
2022-08-15T04:18:43.554Z,78.31
2022-08-15T04:19:26.269Z,78.42
2022-08-15T04:20:26.812Z,78.42
2022-08-15T04:21:26.249Z,78.31
2022-08-15T04:22:28.704Z,78.52
2022-08-15T04:23:26.224Z,78.52
2022-08-15T04:24:26.064Z,78.22
2022-08-15T04:25:25.206Z,78.31
2022-08-15T04:26:26.709Z,78.42
2022-08-15T04:27:25.250Z,78.22
2022-08-15T04:28:39.144Z,78.31
2022-08-15T04:29:26.160Z,78.52
2022-08-15T04:30:25.188Z,78.72
2022-08-15T04:31:25.147Z,78.92
2022-08-15T04:32:28.967Z,79.02
2022-08-15T04:34:22.453Z,79.22
2022-08-15T04:34:51.361Z,79.02
2022-08-15T04:35:26.095Z,79.35
2022-08-15T04:36:30.375Z,79.11
2022-08-15T04:37:26.089Z,79.11
2022-08-15T04:38:26.064Z,78.52
2022-08-15T04:39:25.082Z,78.42
2022-08-15T04:41:19.227Z,78.48
2022-08-15T04:41:35.948Z,78.28
2022-08-15T04:42:26.020Z,78.48
2022-08-15T04:43:25.012Z,78.68
2022-08-15T04:44:28.474Z,78.68
2022-08-15T04:45:24.989Z,78.68
2022-08-15T04:46:26.359Z,78.58
2022-08-15T04:47:24.968Z,78.48
2022-08-15T04:48:25.955Z,78.44
2022-08-15T04:49:24.946Z,78.38
2022-08-15T04:50:24.934Z,78.04
2022-08-15T04:51:34.453Z,77.64
2022-08-15T04:52:25.912Z,77.34
2022-08-15T04:53:30.543Z,77.04
2022-08-15T04:54:25.890Z,77.44
2022-08-15T04:55:44.481Z,77.11
2022-08-15T04:56:48.525Z,76.81
2022-08-15T04:57:25.860Z,76.51
2022-08-15T04:58:41.820Z,76.91
2022-08-15T04:59:37.958Z,77.11
2022-08-15T05:00:28.003Z,76.51
2022-08-15T05:01:24.891Z,76.51
2022-08-15T05:02:55.265Z,76.51
2022-08-15T05:03:25.839Z,76.67
2022-08-15T05:04:26.200Z,76.81
2022-08-15T05:05:24.776Z,76.77
2022-08-15T05:06:30.650Z,76.67
2022-08-15T05:07:27.387Z,76.67
2022-08-15T05:08:24.742Z,76.14
2022-08-15T05:09:24.737Z,75.87
2022-08-15T05:10:33.695Z,75.64
2022-08-15T05:11:25.728Z,76.43
2022-08-15T05:12:25.699Z,76.24
2022-08-15T05:13:25.693Z,76.17
2022-08-15T05:14:35.677Z,76.04
2022-08-15T05:15:25.669Z,75.54
2022-08-15T05:16:34.996Z,75.44
2022-08-15T05:17:25.647Z,75.14
2022-08-15T05:18:25.637Z,75.14
2022-08-15T05:19:24.629Z,74.84
2022-08-15T05:20:24.642Z,75.14
2022-08-15T05:21:43.490Z,75.24
2022-08-15T05:22:36.473Z,74.71
2022-08-15T05:23:34.315Z,74.90
2022-08-15T05:24:29.331Z,75.10
2022-08-15T05:25:25.327Z,74.71
2022-08-15T05:26:53.266Z,75.01
2022-08-15T05:27:25.545Z,74.80
2022-08-15T05:28:31.135Z,75.24
2022-08-15T05:29:25.525Z,75.31
2022-08-15T05:30:27.961Z,75.34
2022-08-15T05:31:24.519Z,75.24
2022-08-15T05:32:25.494Z,74.80
2022-08-15T05:33:57.416Z,74.71
2022-08-15T05:34:37.683Z,74.30
2022-08-15T05:35:25.462Z,74.41
2022-08-15T05:36:27.262Z,73.81
2022-08-15T05:37:24.440Z,74.11
2022-08-15T05:38:31.299Z,74.64
2022-08-15T05:39:25.466Z,75.34
2022-08-15T05:40:25.431Z,74.74
2022-08-15T05:41:25.935Z,74.84
2022-08-15T05:42:31.749Z,74.90
2022-08-15T05:43:25.377Z,75.31
2022-08-15T05:44:39.298Z,75.10
2022-08-15T05:45:31.251Z,74.17
2022-08-15T05:46:26.758Z,74.27
2022-08-15T05:47:24.336Z,74.17
2022-08-15T05:48:24.858Z,74.07
2022-08-15T05:49:25.327Z,73.97
2022-08-15T05:50:25.485Z,74.11
2022-08-15T05:51:24.305Z,74.51
2022-08-15T05:52:24.281Z,74.07
2022-08-15T05:53:25.271Z,74.17
2022-08-15T05:54:25.882Z,74.90
2022-08-15T05:55:24.244Z,74.60
2022-08-15T05:56:24.249Z,74.80
2022-08-15T05:57:24.224Z,74.80
2022-08-15T05:58:42.948Z,75.10
2022-08-15T05:59:25.202Z,75.31
2022-08-15T06:00:24.190Z,75.44
2022-08-15T06:01:24.255Z,75.74
2022-08-15T06:02:36.793Z,75.40
2022-08-15T06:03:25.164Z,75.10
2022-08-15T06:04:30.013Z,74.80
2022-08-15T06:05:33.451Z,75.01
2022-08-15T06:06:25.355Z,74.37
2022-08-15T06:07:24.118Z,73.97
2022-08-15T06:08:48.958Z,74.07
2022-08-15T06:09:25.098Z,73.87
2022-08-15T06:10:35.698Z,74.07
2022-08-15T06:11:25.076Z,74.87
2022-08-15T06:12:26.049Z,75.01
2022-08-15T06:13:24.054Z,75.80
2022-08-15T06:14:35.530Z,75.10
2022-08-15T06:15:25.086Z,75.54
2022-08-15T06:16:46.348Z,75.70
2022-08-15T06:17:25.208Z,75.31
2022-08-15T06:18:24.024Z,75.50
2022-08-15T06:19:24.087Z,75.37
2022-08-15T06:20:35.973Z,74.87
2022-08-15T06:21:24.970Z,74.13
2022-08-15T06:22:26.076Z,74.04
2022-08-15T06:23:37.261Z,73.41
2022-08-15T06:24:26.549Z,72.87
2022-08-15T06:25:23.968Z,72.67
2022-08-15T06:26:23.958Z,72.14
2022-08-15T06:27:40.400Z,71.94
2022-08-15T06:28:51.849Z,71.61
2022-08-15T06:29:24.886Z,71.31
2022-08-15T06:30:23.886Z,70.92
2022-08-15T06:31:23.863Z,71.11
2022-08-15T06:32:24.523Z,71.01
2022-08-15T06:33:24.871Z,70.72
2022-08-15T06:34:46.956Z,70.72
2022-08-15T06:35:26.420Z,70.72
2022-08-15T06:36:23.938Z,71.41
2022-08-15T06:37:24.207Z,71.01
2022-08-15T06:38:31.239Z,70.92
2022-08-15T06:39:24.820Z,70.58
2022-08-15T06:40:27.947Z,69.85
2022-08-15T06:41:25.249Z,68.93
2022-08-15T06:42:23.745Z,68.93
2022-08-15T06:43:24.732Z,68.73
2022-08-15T06:44:30.518Z,68.20
2022-08-15T06:45:24.721Z,67.47
2022-08-15T06:46:45.788Z,67.18
2022-08-15T06:47:24.690Z,67.28
2022-08-15T06:48:33.300Z,67.28
2022-08-15T06:49:24.666Z,67.47
2022-08-15T06:50:23.672Z,66.68
2022-08-15T06:51:23.656Z,67.47
2022-08-15T06:52:25.691Z,66.75
2022-08-15T06:53:23.628Z,66.68
2022-08-15T06:54:35.992Z,66.35
2022-08-15T06:55:24.618Z,66.16
2022-08-15T06:56:29.216Z,66.22
2022-08-15T06:57:24.580Z,65.33
2022-08-15T06:58:54.510Z,64.70
2022-08-15T06:59:35.870Z,63.98
2022-08-15T07:00:35.693Z,64.61
2022-08-15T07:01:24.608Z,63.98
2022-08-15T07:02:40.039Z,63.89
2022-08-15T07:03:25.805Z,63.46
2022-08-15T07:04:23.505Z,63.13
2022-08-15T07:05:29.278Z,62.21
2022-08-15T07:06:24.480Z,62.41
2022-08-15T07:07:23.476Z,61.69
2022-08-15T07:08:23.461Z,60.77
2022-08-15T07:09:24.456Z,61.19
2022-08-15T07:10:23.455Z,61.19
2022-08-15T07:11:23.429Z,61.46
2022-08-15T07:12:36.511Z,60.28
2022-08-15T07:13:24.412Z,60.47
2022-08-15T07:14:23.400Z,60.64
2022-08-15T07:15:23.406Z,59.33
2022-08-15T07:16:23.376Z,58.81
2022-08-15T07:17:24.611Z,57.50
2022-08-15T07:18:30.905Z,57.08
2022-08-15T07:19:24.346Z,56.83
2022-08-15T07:20:39.932Z,55.91
2022-08-15T07:21:24.327Z,54.68
2022-08-15T07:22:35.364Z,53.38
2022-08-15T07:23:24.313Z,53.38
2022-08-15T07:24:35.614Z,53.31
2022-08-15T07:25:24.296Z,53.48
2022-08-15T07:26:23.453Z,53.26
2022-08-15T07:27:23.264Z,52.28
2022-08-15T07:28:23.253Z,51.89
2022-08-15T07:29:24.244Z,52.64
2022-08-15T07:30:31.250Z,51.66
2022-08-15T07:31:26.293Z,52.03
2022-08-15T07:32:33.285Z,51.61
2022-08-15T07:33:24.201Z,50.83
2022-08-15T07:34:23.212Z,50.83
2022-08-15T07:35:23.408Z,50.71
2022-08-15T07:36:30.424Z,50.51
2022-08-15T07:37:24.163Z,51.00
2022-08-15T07:38:28.096Z,50.71
2022-08-15T07:39:34.283Z,50.32
2022-08-15T07:40:28.750Z,50.20
2022-08-15T07:41:24.135Z,49.80
2022-08-15T07:42:32.290Z,49.99
2022-08-15T07:43:24.103Z,49.02
2022-08-15T07:44:23.107Z,48.99
2022-08-15T07:45:25.019Z,49.38
2022-08-15T07:46:24.512Z,49.09
2022-08-15T07:47:23.062Z,48.48
2022-08-15T07:48:24.570Z,48.99
2022-08-15T07:49:23.057Z,48.60
2022-08-15T07:50:28.565Z,48.90
2022-08-15T07:51:24.022Z,48.41
2022-08-15T07:53:24.002Z,50.07
2022-08-15T07:54:34.849Z,50.66
2022-08-15T07:56:39.060Z,50.17
2022-08-15T07:57:51.319Z,50.42
2022-08-15T07:58:28.351Z,49.11
2022-08-15T07:59:24.258Z,48.92
2022-08-15T08:00:44.897Z,49.38
2022-08-15T08:01:33.741Z,48.19
2022-08-15T08:02:30.146Z,47.80
2022-08-15T08:03:23.995Z,47.67
2022-08-15T08:06:33.440Z,46.78
2022-08-15T08:07:34.465Z,46.39
2022-08-15T08:08:45.378Z,46.89
2022-08-15T08:09:24.026Z,46.41
2022-08-15T08:10:23.889Z,46.39
2022-08-15T08:11:23.528Z,46.46
2022-08-15T08:12:30.518Z,46.31
2022-08-15T08:13:27.515Z,45.65
2022-08-15T08:14:39.724Z,46.29
2022-08-15T08:15:42.913Z,46.78
2022-08-15T08:16:30.932Z,46.78
2022-08-15T08:17:23.770Z,46.48
2022-08-15T08:18:26.064Z,46.53
2022-08-15T08:19:24.158Z,47.92
2022-08-15T08:20:22.742Z,47.72
2022-08-15T08:21:29.660Z,48.09
2022-08-15T08:22:23.736Z,47.72
2022-08-15T08:23:27.578Z,48.82
2022-08-15T08:24:24.605Z,48.02
2022-08-15T08:25:41.747Z,47.72
2022-08-15T08:26:23.681Z,48.11
2022-08-15T08:27:22.672Z,47.70
2022-08-15T08:28:23.281Z,46.31
2022-08-15T08:29:22.710Z,46.58
2022-08-15T08:30:43.787Z,46.80
2022-08-15T08:31:23.632Z,46.72
2022-08-15T08:32:29.830Z,47.60
2022-08-15T08:33:23.611Z,47.28
2022-08-15T08:34:48.265Z,47.17
2022-08-15T08:35:23.595Z,46.19
2022-08-15T08:36:36.260Z,45.80
2022-08-15T08:37:23.575Z,45.97
2022-08-15T08:38:58.419Z,46.24
2022-08-15T08:39:23.605Z,45.75
2022-08-15T08:40:24.137Z,45.46
2022-08-15T08:41:22.550Z,46.58
2022-08-15T08:42:22.526Z,45.90
2022-08-15T08:43:22.518Z,47.31
2022-08-15T08:44:23.145Z,48.19
2022-08-15T08:45:22.674Z,46.62
2022-08-15T08:46:29.177Z,46.60
2022-08-15T08:47:23.478Z,45.61
2022-08-15T08:48:25.659Z,46.46
2022-08-15T08:49:22.479Z,45.75
2022-08-15T08:50:33.470Z,45.54
2022-08-15T08:51:23.438Z,44.44
2022-08-15T08:52:27.106Z,44.44
2022-08-15T08:53:30.188Z,43.84
2022-08-15T08:54:28.801Z,43.44
2022-08-15T08:55:23.402Z,43.76
2022-08-15T08:56:31.628Z,44.38
2022-08-15T08:57:23.381Z,45.39
2022-08-15T08:58:34.540Z,45.65
2022-08-15T08:59:25.605Z,46.04
2022-08-15T09:00:29.536Z,46.85
2022-08-15T09:01:24.584Z,46.07
2022-08-15T09:02:29.080Z,46.24
2022-08-15T09:03:23.324Z,45.92
2022-08-15T09:04:22.330Z,46.04
2022-08-15T09:05:22.307Z,46.26
2022-08-15T09:06:26.596Z,46.44
2022-08-15T09:07:23.288Z,45.85
2022-08-15T09:08:29.170Z,45.78
2022-08-15T09:09:23.835Z,46.19
2022-08-15T09:10:27.113Z,46.00
2022-08-15T09:11:24.027Z,46.78
2022-08-15T09:12:22.253Z,45.97
2022-08-15T09:13:23.229Z,46.09
2022-08-15T09:14:33.236Z,46.70
2022-08-15T09:15:23.209Z,46.41
2022-08-15T09:16:24.662Z,46.09
2022-08-15T09:17:31.108Z,45.80
2022-08-15T09:18:23.182Z,45.90
2022-08-15T09:19:22.187Z,46.09
2022-08-15T09:20:22.239Z,46.62
2022-08-15T09:21:23.153Z,46.72
2022-08-15T09:22:22.144Z,47.53
2022-08-15T09:23:32.711Z,48.26
2022-08-15T09:25:06.749Z,48.46
2022-08-15T09:25:30.054Z,47.85
2022-08-15T09:26:23.101Z,47.72
2022-08-15T09:27:22.093Z,46.99
2022-08-15T09:28:30.130Z,46.01
2022-08-15T09:29:23.084Z,46.62
2022-08-15T09:30:45.694Z,46.82
2022-08-15T09:31:23.555Z,47.63
2022-08-15T09:32:30.624Z,47.65
2022-08-15T09:33:23.047Z,48.46
2022-08-15T09:34:31.045Z,47.55
2022-08-15T09:35:23.368Z,48.02
2022-08-15T09:36:27.310Z,46.65
2022-08-15T09:37:23.010Z,46.41
2022-08-15T09:38:26.775Z,46.11
2022-08-15T09:39:23.028Z,45.80
2022-08-15T09:40:58.364Z,45.58
2022-08-15T09:41:24.565Z,45.36
2022-08-15T09:42:35.013Z,44.37
2022-08-15T09:43:22.968Z,44.46
2022-08-15T09:44:37.082Z,46.07
2022-08-15T09:45:44.277Z,46.21
2022-08-15T09:46:41.981Z,46.55
2022-08-15T09:47:27.023Z,48.16
2022-08-15T09:48:22.886Z,48.87
2022-08-15T09:49:22.885Z,49.87
2022-08-15T09:50:33.469Z,50.20
2022-08-15T09:51:22.857Z,50.20
2022-08-15T09:52:34.668Z,49.26
2022-08-15T09:53:22.879Z,47.85
2022-08-15T09:54:24.769Z,47.94
2022-08-15T09:55:22.819Z,48.07
2022-08-15T09:56:27.516Z,48.77
2022-08-15T09:57:22.797Z,48.94
2022-08-15T09:58:21.789Z,47.92
2022-08-15T09:59:21.794Z,46.72
2022-08-15T10:00:21.777Z,45.61
2022-08-15T10:01:24.602Z,45.29
2022-08-15T10:02:36.185Z,44.48
2022-08-15T10:03:22.745Z,43.49
2022-08-15T10:04:28.651Z,44.24
2022-08-15T10:05:22.720Z,43.95
2022-08-15T10:06:32.548Z,43.44
2022-08-15T10:07:22.698Z,43.43
2022-08-15T10:08:29.754Z,43.04
2022-08-15T10:09:23.458Z,43.84
2022-08-15T10:10:21.675Z,44.66
2022-08-15T10:11:21.660Z,44.56
2022-08-15T10:12:21.712Z,44.85
2022-08-15T10:13:21.643Z,43.54
2022-08-15T10:14:21.649Z,43.33
2022-08-15T10:15:21.624Z,42.70
2022-08-15T10:16:21.616Z,42.80
2022-08-15T10:17:21.639Z,42.82
2022-08-15T10:18:22.594Z,42.45
2022-08-15T10:19:21.612Z,43.54
2022-08-15T10:20:21.576Z,44.15
2022-08-15T10:21:21.927Z,43.85
2022-08-15T10:22:21.557Z,44.34
2022-08-15T10:23:21.546Z,44.46
2022-08-15T10:24:28.540Z,43.64
2022-08-15T10:25:23.468Z,43.76
2022-08-15T10:26:34.303Z,44.15
2022-08-15T10:27:22.507Z,44.27
2022-08-15T10:28:37.451Z,44.48
2022-08-15T10:29:22.502Z,45.72
2022-08-15T10:30:46.236Z,46.16
2022-08-15T10:31:51.719Z,46.57
2022-08-15T10:32:36.696Z,47.79
2022-08-15T10:33:23.658Z,47.81
2022-08-15T10:34:21.463Z,48.11
2022-08-15T10:35:21.432Z,48.43
2022-08-15T10:36:32.663Z,48.43
2022-08-15T10:37:24.703Z,49.31
2022-08-15T10:38:31.569Z,48.92
2022-08-15T10:39:22.550Z,49.02
2022-08-15T10:40:22.987Z,48.65
2022-08-15T10:41:22.369Z,48.45
2022-08-15T10:42:22.886Z,48.57
2022-08-15T10:43:21.352Z,49.65
2022-08-15T10:44:34.679Z,50.37
2022-08-15T10:45:22.330Z,50.95
2022-08-15T10:46:22.045Z,50.07
2022-08-15T10:47:21.310Z,50.88
2022-08-15T10:48:45.260Z,50.56
2022-08-15T10:49:25.798Z,50.76
2022-08-15T10:50:23.762Z,50.07
2022-08-15T10:51:21.272Z,50.39
2022-08-15T10:52:21.264Z,50.42
2022-08-15T10:53:21.253Z,50.12
2022-08-15T10:54:21.305Z,51.32
2022-08-15T10:55:55.807Z,51.69
2022-08-15T10:56:59.805Z,51.79
2022-08-15T10:57:22.208Z,51.10
2022-08-15T10:58:21.199Z,50.71
2022-08-15T10:59:22.697Z,50.68
2022-08-15T11:00:37.453Z,50.39
2022-08-15T11:01:22.957Z,50.32
2022-08-15T11:02:36.928Z,50.90
2022-08-15T11:03:22.146Z,50.51
2022-08-15T11:04:57.652Z,51.10
2022-08-15T11:05:22.128Z,51.50
2022-08-15T11:06:23.662Z,51.72
2022-08-15T11:07:22.120Z,51.72
2022-08-15T11:08:21.104Z,52.11
2022-08-15T11:09:21.134Z,51.42
2022-08-15T11:10:24.271Z,51.50
2022-08-15T11:11:21.066Z,52.28
2022-08-15T11:12:21.055Z,51.69
2022-08-15T11:13:22.060Z,51.69
2022-08-15T11:14:29.150Z,51.69
2022-08-15T11:15:23.141Z,51.79
2022-08-15T11:16:32.819Z,50.88
2022-08-15T11:17:22.812Z,51.50
2022-08-15T11:18:23.829Z,51.89
2022-08-15T11:20:09.511Z,51.50
2022-08-15T11:20:23.951Z,51.81
2022-08-15T11:21:20.997Z,51.52
2022-08-15T11:22:20.949Z,51.62
2022-08-15T11:23:20.966Z,52.01
2022-08-15T11:24:20.932Z,51.42
2022-08-15T11:25:21.017Z,52.01
2022-08-15T11:26:27.298Z,52.21
2022-08-15T11:27:23.811Z,51.52
2022-08-15T11:28:36.685Z,51.62
2022-08-15T11:29:21.876Z,52.11
2022-08-15T11:30:22.246Z,52.11
2022-08-15T11:31:20.861Z,51.42
2022-08-15T11:32:25.374Z,51.62
2022-08-15T11:33:26.359Z,51.81
2022-08-15T11:34:23.648Z,51.81
2022-08-15T11:35:21.812Z,51.45
2022-08-15T11:36:20.804Z,51.64
2022-08-15T11:37:20.801Z,52.03
2022-08-15T11:38:21.048Z,52.14
2022-08-15T11:39:24.342Z,52.31
2022-08-15T11:40:20.806Z,51.62
2022-08-15T11:41:20.767Z,51.32
2022-08-15T11:42:20.741Z,51.03
2022-08-15T11:43:20.745Z,50.93
2022-08-15T11:44:23.393Z,51.42
2022-08-15T11:45:20.707Z,50.83
2022-08-15T11:46:30.749Z,50.51
2022-08-15T11:47:21.691Z,50.81
2022-08-15T11:48:20.732Z,50.71
2022-08-15T11:49:20.668Z,50.71
2022-08-15T11:50:20.658Z,50.71
2022-08-15T11:51:20.646Z,50.81
2022-08-15T11:52:40.278Z,50.83
2022-08-15T11:53:21.638Z,51.00
2022-08-15T11:54:34.147Z,50.90
2022-08-15T11:55:24.528Z,51.03
2022-08-15T11:56:25.964Z,51.03
2022-08-15T11:57:43.210Z,51.12
2022-08-15T11:58:21.586Z,51.74
2022-08-15T11:59:21.565Z,51.62
2022-08-15T12:00:21.332Z,51.74
2022-08-15T12:01:21.540Z,51.42
2022-08-15T12:02:32.083Z,51.12
2022-08-15T12:04:39.942Z,51.52
2022-08-15T12:05:40.299Z,51.03
2022-08-15T12:05:42.642Z,50.34
2022-08-15T12:07:21.479Z,49.16
2022-08-15T12:09:42.639Z,49.65
2022-08-15T12:10:30.297Z,49.16
2022-08-15T12:11:21.436Z,49.75
2022-08-15T12:12:20.431Z,49.35
2022-08-15T12:13:14.965Z,48.47
2022-08-15T12:13:24.769Z,49.06
2022-08-15T12:13:32.248Z,49.46
2022-08-15T12:14:23.859Z,49.18
2022-08-15T12:15:20.397Z,49.97
2022-08-15T12:16:26.732Z,50.56
2022-08-15T12:17:21.374Z,50.37
2022-08-15T12:18:32.626Z,50.85
2022-08-15T12:19:25.176Z,50.78
2022-08-15T12:20:26.890Z,50.88
2022-08-15T12:21:21.334Z,51.76
2022-08-15T12:22:52.870Z,52.26
2022-08-15T12:23:21.474Z,51.69
2022-08-15T12:24:20.303Z,52.28
2022-08-15T12:25:38.005Z,52.28
2022-08-15T12:26:37.951Z,52.06
2022-08-15T12:27:22.980Z,51.57
2022-08-15T12:28:33.151Z,51.76
2022-08-15T12:29:21.255Z,51.76
2022-08-15T12:30:26.880Z,51.47
2022-08-15T12:31:21.227Z,51.67
2022-08-15T12:32:36.508Z,51.76
2022-08-15T12:33:21.245Z,52.16
2022-08-15T12:34:28.782Z,51.28
2022-08-15T12:35:24.166Z,51.18
2022-08-15T12:37:02.165Z,51.07
2022-08-15T12:37:39.448Z,50.68
2022-08-15T12:38:21.172Z,50.29
2022-08-15T12:39:21.174Z,50.46
2022-08-15T12:40:54.471Z,50.49
2022-08-15T12:42:47.570Z,50.56
2022-08-15T12:42:48.576Z,50.78
2022-08-15T12:43:21.221Z,51.05
2022-08-15T12:44:20.102Z,50.37
2022-08-15T12:45:20.193Z,50.16
2022-08-15T12:46:20.402Z,50.66
2022-08-15T12:47:20.060Z,50.66
2022-08-15T12:48:22.634Z,50.56
2022-08-15T12:49:21.038Z,51.05
2022-08-15T12:50:24.932Z,50.46
2022-08-15T12:51:22.766Z,50.95
2022-08-15T12:52:26.065Z,50.76
2022-08-15T12:53:21.030Z,50.66
2022-08-15T12:54:26.859Z,51.05
2022-08-15T12:56:43.923Z,49.95
2022-08-15T12:57:22.605Z,50.44